sensor_id;sensor_type;location;lat;lon;timestamp;temperature;humidity
77100;SHT31;66602;48.922;2.414;2023-08-21T00:01:28;19.40;73.50
77100;SHT31;66602;48.922;2.414;2023-08-21T00:03:54;19.40;73.42
77100;SHT31;66602;48.922;2.414;2023-08-21T00:06:19;19.44;73.17
77100;SHT31;66602;48.922;2.414;2023-08-21T00:08:45;19.43;73.23
77100;SHT31;66602;48.922;2.414;2023-08-21T00:11:10;19.43;73.12
77100;SHT31;66602;48.922;2.414;2023-08-21T00:13:35;19.38;73.19
77100;SHT31;66602;48.922;2.414;2023-08-21T00:16:01;19.40;73.64
77100;SHT31;66602;48.922;2.414;2023-08-21T00:18:26;19.37;73.20
77100;SHT31;66602;48.922;2.414;2023-08-21T00:20:52;19.30;73.72
77100;SHT31;66602;48.922;2.414;2023-08-21T00:23:17;19.26;73.68
77100;SHT31;66602;48.922;2.414;2023-08-21T00:25:46;19.17;73.77
77100;SHT31;66602;48.922;2.414;2023-08-21T00:28:12;19.13;74.05
77100;SHT31;66602;48.922;2.414;2023-08-21T00:30:37;19.09;74.25
77100;SHT31;66602;48.922;2.414;2023-08-21T00:33:03;19.00;74.15
77100;SHT31;66602;48.922;2.414;2023-08-21T00:35:28;18.91;74.42
77100;SHT31;66602;48.922;2.414;2023-08-21T00:37:54;18.88;74.63
77100;SHT31;66602;48.922;2.414;2023-08-21T00:40:19;18.82;74.78
77100;SHT31;66602;48.922;2.414;2023-08-21T00:42:45;18.79;74.83
77100;SHT31;66602;48.922;2.414;2023-08-21T00:45:10;18.69;75.28
77100;SHT31;66602;48.922;2.414;2023-08-21T00:47:37;18.61;75.37
77100;SHT31;66602;48.922;2.414;2023-08-21T00:50:03;18.61;75.76
77100;SHT31;66602;48.922;2.414;2023-08-21T00:52:31;18.57;75.64
77100;SHT31;66602;48.922;2.414;2023-08-21T00:54:57;18.55;75.52
77100;SHT31;66602;48.922;2.414;2023-08-21T00:57:23;18.57;75.82
77100;SHT31;66602;48.922;2.414;2023-08-21T00:59:49;18.51;75.84
77100;SHT31;66602;48.922;2.414;2023-08-21T01:02:14;18.48;76.15
77100;SHT31;66602;48.922;2.414;2023-08-21T01:04:40;18.54;76.10
77100;SHT31;66602;48.922;2.414;2023-08-21T01:07:05;18.57;75.65
77100;SHT31;66602;48.922;2.414;2023-08-21T01:10:03;18.57;75.84
77100;SHT31;66602;48.922;2.414;2023-08-21T01:15:07;18.57;75.26
77100;SHT31;66602;48.922;2.414;2023-08-21T01:17:42;18.55;75.59
77100;SHT31;66602;48.922;2.414;2023-08-21T01:20:09;18.54;75.65
77100;SHT31;66602;48.922;2.414;2023-08-21T01:22:40;18.51;75.85
77100;SHT31;66602;48.922;2.414;2023-08-21T01:25:07;18.47;75.73
77100;SHT31;66602;48.922;2.414;2023-08-21T01:27:34;18.49;75.64
77100;SHT31;66602;48.922;2.414;2023-08-21T01:30:01;18.47;76.32
77100;SHT31;66602;48.922;2.414;2023-08-21T01:35:15;18.45;75.95
77100;SHT31;66602;48.922;2.414;2023-08-21T01:37:42;18.41;76.26
77100;SHT31;66602;48.922;2.414;2023-08-21T01:40:08;18.41;76.25
77100;SHT31;66602;48.922;2.414;2023-08-21T01:42:34;18.43;76.15
77100;SHT31;66602;48.922;2.414;2023-08-21T01:44:59;18.43;76.07
77100;SHT31;66602;48.922;2.414;2023-08-21T01:47:25;18.38;76.12
77100;SHT31;66602;48.922;2.414;2023-08-21T01:49:50;18.45;76.14
77100;SHT31;66602;48.922;2.414;2023-08-21T01:52:20;18.41;76.03
77100;SHT31;66602;48.922;2.414;2023-08-21T01:54:47;18.33;76.64
77100;SHT31;66602;48.922;2.414;2023-08-21T01:57:13;18.30;76.67
77100;SHT31;66602;48.922;2.414;2023-08-21T01:59:38;18.23;77.04
77100;SHT31;66602;48.922;2.414;2023-08-21T02:02:04;18.10;77.26
77100;SHT31;66602;48.922;2.414;2023-08-21T02:04:29;18.04;77.83
77100;SHT31;66602;48.922;2.414;2023-08-21T02:06:55;18.06;77.68
77100;SHT31;66602;48.922;2.414;2023-08-21T02:09:20;18.00;77.77
77100;SHT31;66602;48.922;2.414;2023-08-21T02:11:47;17.98;78.37
77100;SHT31;66602;48.922;2.414;2023-08-21T02:14:13;18.00;77.61
77100;SHT31;66602;48.922;2.414;2023-08-21T02:16:38;18.04;77.79
77100;SHT31;66602;48.922;2.414;2023-08-21T02:19:04;18.03;77.74
77100;SHT31;66602;48.922;2.414;2023-08-21T02:21:29;18.00;77.77
77100;SHT31;66602;48.922;2.414;2023-08-21T02:23:54;17.94;78.05
77100;SHT31;66602;48.922;2.414;2023-08-21T02:26:20;17.90;78.66
77100;SHT31;66602;48.922;2.414;2023-08-21T02:28:45;17.87;78.19
77100;SHT31;66602;48.922;2.414;2023-08-21T02:31:12;17.85;78.32
77100;SHT31;66602;48.922;2.414;2023-08-21T02:33:38;17.80;78.71
77100;SHT31;66602;48.922;2.414;2023-08-21T02:36:04;17.73;78.77
77100;SHT31;66602;48.922;2.414;2023-08-21T02:38:29;17.65;79.39
77100;SHT31;66602;48.922;2.414;2023-08-21T02:40:55;17.59;79.67
77100;SHT31;66602;48.922;2.414;2023-08-21T02:43:21;17.61;80.09
77100;SHT31;66602;48.922;2.414;2023-08-21T02:45:47;17.59;79.93
77100;SHT31;66602;48.922;2.414;2023-08-21T02:48:12;17.63;79.68
77100;SHT31;66602;48.922;2.414;2023-08-21T02:50:37;17.58;79.92
77100;SHT31;66602;48.922;2.414;2023-08-21T02:53:03;17.53;79.93
77100;SHT31;66602;48.922;2.414;2023-08-21T02:55:29;17.53;80.15
77100;SHT31;66602;48.922;2.414;2023-08-21T02:57:54;17.53;80.30
77100;SHT31;66602;48.922;2.414;2023-08-21T03:00:20;17.52;80.30
77100;SHT31;66602;48.922;2.414;2023-08-21T03:02:45;17.52;80.36
77100;SHT31;66602;48.922;2.414;2023-08-21T03:05:11;17.58;80.54
77100;SHT31;66602;48.922;2.414;2023-08-21T03:07:37;17.65;80.07
77100;SHT31;66602;48.922;2.414;2023-08-21T03:10:03;17.72;79.87
77100;SHT31;66602;48.922;2.414;2023-08-21T03:12:28;17.76;79.86
77100;SHT31;66602;48.922;2.414;2023-08-21T03:14:54;17.70;79.95
77100;SHT31;66602;48.922;2.414;2023-08-21T03:17:20;17.63;80.07
77100;SHT31;66602;48.922;2.414;2023-08-21T03:19:45;17.49;80.56
77100;SHT31;66602;48.922;2.414;2023-08-21T03:22:11;17.36;81.15
77100;SHT31;66602;48.922;2.414;2023-08-21T03:24:36;17.29;81.53
77100;SHT31;66602;48.922;2.414;2023-08-21T03:27:02;17.31;81.63
77100;SHT31;66602;48.922;2.414;2023-08-21T03:29:28;17.29;81.80
77100;SHT31;66602;48.922;2.414;2023-08-21T03:31:53;17.34;81.43
77100;SHT31;66602;48.922;2.414;2023-08-21T03:34:22;17.40;81.36
77100;SHT31;66602;48.922;2.414;2023-08-21T03:36:47;17.56;80.93
77100;SHT31;66602;48.922;2.414;2023-08-21T03:39:13;17.59;80.60
77100;SHT31;66602;48.922;2.414;2023-08-21T03:41:39;17.61;80.45
77100;SHT31;66602;48.922;2.414;2023-08-21T03:44:04;17.66;80.03
77100;SHT31;66602;48.922;2.414;2023-08-21T03:46:30;17.70;79.84
77100;SHT31;66602;48.922;2.414;2023-08-21T03:48:55;17.77;79.48
77100;SHT31;66602;48.922;2.414;2023-08-21T03:51:22;17.79;79.67
77100;SHT31;66602;48.922;2.414;2023-08-21T03:53:47;17.77;79.93
77100;SHT31;66602;48.922;2.414;2023-08-21T03:56:13;17.76;79.68
77100;SHT31;66602;48.922;2.414;2023-08-21T03:58:38;17.70;79.79
77100;SHT31;66602;48.922;2.414;2023-08-21T04:01:04;17.65;79.96
77100;SHT31;66602;48.922;2.414;2023-08-21T04:03:29;17.58;80.21
77100;SHT31;66602;48.922;2.414;2023-08-21T04:05:55;17.46;80.92
77100;SHT31;66602;48.922;2.414;2023-08-21T04:08:22;17.43;80.58
77100;SHT31;66602;48.922;2.414;2023-08-21T04:10:47;17.38;81.06
77100;SHT31;66602;48.922;2.414;2023-08-21T04:13:13;17.32;80.96
77100;SHT31;66602;48.922;2.414;2023-08-21T04:15:38;17.31;81.18
77100;SHT31;66602;48.922;2.414;2023-08-21T04:18:04;17.25;81.15
77100;SHT31;66602;48.922;2.414;2023-08-21T04:20:30;17.22;81.69
77100;SHT31;66602;48.922;2.414;2023-08-21T04:22:56;17.14;81.93
77100;SHT31;66602;48.922;2.414;2023-08-21T04:25:21;17.14;82.15
77100;SHT31;66602;48.922;2.414;2023-08-21T04:27:47;17.10;81.98
77100;SHT31;66602;48.922;2.414;2023-08-21T04:30:13;17.10;82.52
77100;SHT31;66602;48.922;2.414;2023-08-21T04:32:38;17.12;82.44
77100;SHT31;66602;48.922;2.414;2023-08-21T04:35:04;17.15;81.71
77100;SHT31;66602;48.922;2.414;2023-08-21T04:37:31;17.11;81.59
77100;SHT31;66602;48.922;2.414;2023-08-21T04:39:56;17.12;82.08
77100;SHT31;66602;48.922;2.414;2023-08-21T04:42:22;17.17;81.32
77100;SHT31;66602;48.922;2.414;2023-08-21T04:44:47;17.21;81.23
77100;SHT31;66602;48.922;2.414;2023-08-21T04:47:24;17.24;81.28
77100;SHT31;66602;48.922;2.414;2023-08-21T04:49:51;17.21;81.14
77100;SHT31;66602;48.922;2.414;2023-08-21T04:52:17;17.15;81.39
77100;SHT31;66602;48.922;2.414;2023-08-21T04:54:43;17.03;81.96
77100;SHT31;66602;48.922;2.414;2023-08-21T04:57:08;16.94;82.39
77100;SHT31;66602;48.922;2.414;2023-08-21T04:59:35;16.88;82.91
77100;SHT31;66602;48.922;2.414;2023-08-21T05:02:01;16.85;83.05
77100;SHT31;66602;48.922;2.414;2023-08-21T05:04:27;16.83;83.07
77100;SHT31;66602;48.922;2.414;2023-08-21T05:06:52;16.83;83.43
77100;SHT31;66602;48.922;2.414;2023-08-21T05:09:17;16.88;82.80
77100;SHT31;66602;48.922;2.414;2023-08-21T05:11:43;16.95;82.23
77100;SHT31;66602;48.922;2.414;2023-08-21T05:14:08;16.92;82.62
77100;SHT31;66602;48.922;2.414;2023-08-21T05:16:34;16.91;83.05
77100;SHT31;66602;48.922;2.414;2023-08-21T05:19:00;16.88;82.91
77100;SHT31;66602;48.922;2.414;2023-08-21T05:21:25;16.90;82.97
77100;SHT31;66602;48.922;2.414;2023-08-21T05:23:51;16.88;82.88
77100;SHT31;66602;48.922;2.414;2023-08-21T05:26:16;16.87;82.90
77100;SHT31;66602;48.922;2.414;2023-08-21T05:28:42;16.85;82.88
77100;SHT31;66602;48.922;2.414;2023-08-21T05:31:07;16.88;82.75
77100;SHT31;66602;48.922;2.414;2023-08-21T05:33:33;16.92;82.40
77100;SHT31;66602;48.922;2.414;2023-08-21T05:35:58;16.92;82.95
77100;SHT31;66602;48.922;2.414;2023-08-21T05:38:24;16.85;82.60
77100;SHT31;66602;48.922;2.414;2023-08-21T05:40:49;16.92;82.92
77100;SHT31;66602;48.922;2.414;2023-08-21T05:43:16;17.01;82.28
77100;SHT31;66602;48.922;2.414;2023-08-21T05:45:42;17.12;81.83
77100;SHT31;66602;48.922;2.414;2023-08-21T05:48:07;17.18;81.45
77100;SHT31;66602;48.922;2.414;2023-08-21T05:50:33;17.27;81.03
77100;SHT31;66602;48.922;2.414;2023-08-21T05:52:58;17.32;80.25
77100;SHT31;66602;48.922;2.414;2023-08-21T05:55:26;17.36;80.58
77100;SHT31;66602;48.922;2.414;2023-08-21T05:57:52;17.45;79.78
77100;SHT31;66602;48.922;2.414;2023-08-21T06:00:18;17.50;79.54
77100;SHT31;66602;48.922;2.414;2023-08-21T06:02:43;17.55;79.69
77100;SHT31;66602;48.922;2.414;2023-08-21T06:05:09;17.58;79.41
77100;SHT31;66602;48.922;2.414;2023-08-21T06:07:34;17.58;79.38
77100;SHT31;66602;48.922;2.414;2023-08-21T06:10:00;17.58;79.96
77100;SHT31;66602;48.922;2.414;2023-08-21T06:12:25;17.55;80.13
77100;SHT31;66602;48.922;2.414;2023-08-21T06:14:51;17.68;78.63
77100;SHT31;66602;48.922;2.414;2023-08-21T06:17:17;17.77;78.52
77100;SHT31;66602;48.922;2.414;2023-08-21T06:19:42;17.83;77.94
77100;SHT31;66602;48.922;2.414;2023-08-21T06:22:08;17.85;78.32
77100;SHT31;66602;48.922;2.414;2023-08-21T06:24:33;17.91;78.16
77100;SHT31;66602;48.922;2.414;2023-08-21T06:26:59;17.96;78.16
77100;SHT31;66602;48.922;2.414;2023-08-21T06:29:24;18.00;78.01
77100;SHT31;66602;48.922;2.414;2023-08-21T06:31:50;18.06;77.50
77100;SHT31;66602;48.922;2.414;2023-08-21T06:34:15;18.14;77.22
77100;SHT31;66602;48.922;2.414;2023-08-21T06:36:41;18.21;77.25
77100;SHT31;66602;48.922;2.414;2023-08-21T06:39:06;18.28;77.31
77100;SHT31;66602;48.922;2.414;2023-08-21T06:41:32;18.37;77.26
77100;SHT31;66602;48.922;2.414;2023-08-21T06:43:57;18.41;76.68
77100;SHT31;66602;48.922;2.414;2023-08-21T06:46:23;18.49;75.98
77100;SHT31;66602;48.922;2.414;2023-08-21T06:48:49;18.55;75.54
77100;SHT31;66602;48.922;2.414;2023-08-21T06:51:16;18.58;75.71
77100;SHT31;66602;48.922;2.414;2023-08-21T06:53:41;18.62;75.46
77100;SHT31;66602;48.922;2.414;2023-08-21T06:56:07;18.71;75.46
77100;SHT31;66602;48.922;2.414;2023-08-21T06:58:32;18.76;75.67
77100;SHT31;66602;48.922;2.414;2023-08-21T07:01:00;18.86;75.41
77100;SHT31;66602;48.922;2.414;2023-08-21T07:03:25;19.02;73.99
77100;SHT31;66602;48.922;2.414;2023-08-21T07:05:58;19.38;72.65
77100;SHT31;66602;48.922;2.414;2023-08-21T07:08:24;20.35;70.71
77100;SHT31;66602;48.922;2.414;2023-08-21T07:10:50;21.62;66.44
77100;SHT31;66602;48.922;2.414;2023-08-21T07:13:16;23.57;61.01
77100;SHT31;66602;48.922;2.414;2023-08-21T07:15:41;25.24;55.41
77100;SHT31;66602;48.922;2.414;2023-08-21T07:18:07;26.51;52.25
77100;SHT31;66602;48.922;2.414;2023-08-21T07:20:33;27.35;48.47
77100;SHT31;66602;48.922;2.414;2023-08-21T07:22:59;28.03;47.58
77100;SHT31;66602;48.922;2.414;2023-08-21T07:25:24;28.55;45.14
77100;SHT31;66602;48.922;2.414;2023-08-21T07:27:51;28.66;45.68
77100;SHT31;66602;48.922;2.414;2023-08-21T07:30:18;29.05;44.44
77100;SHT31;66602;48.922;2.414;2023-08-21T07:32:45;29.54;43.12
77100;SHT31;66602;48.922;2.414;2023-08-21T07:35:11;29.63;43.17
77100;SHT31;66602;48.922;2.414;2023-08-21T07:37:37;29.86;43.73
77100;SHT31;66602;48.922;2.414;2023-08-21T07:40:04;30.36;42.32
77100;SHT31;66602;48.922;2.414;2023-08-21T07:42:30;31.11;40.77
77100;SHT31;66602;48.922;2.414;2023-08-21T07:44:55;30.77;40.46
77100;SHT31;66602;48.922;2.414;2023-08-21T07:47:21;30.79;40.55
77100;SHT31;66602;48.922;2.414;2023-08-21T07:49:46;30.81;41.22
77100;SHT31;66602;48.922;2.414;2023-08-21T07:52:12;30.91;40.01
77100;SHT31;66602;48.922;2.414;2023-08-21T07:54:37;30.95;40.27
77100;SHT31;66602;48.922;2.414;2023-08-21T07:57:03;31.22;39.00
77100;SHT31;66602;48.922;2.414;2023-08-21T07:59:29;31.31;39.16
77100;SHT31;66602;48.922;2.414;2023-08-21T08:01:54;31.76;39.88
77100;SHT31;66602;48.922;2.414;2023-08-21T08:04:21;32.03;38.74
77100;SHT31;66602;48.922;2.414;2023-08-21T08:06:46;32.53;38.81
77100;SHT31;66602;48.922;2.414;2023-08-21T08:09:12;32.95;36.17
77100;SHT31;66602;48.922;2.414;2023-08-21T08:11:37;32.84;36.73
77100;SHT31;66602;48.922;2.414;2023-08-21T08:14:03;32.38;37.33
77100;SHT31;66602;48.922;2.414;2023-08-21T08:16:28;32.43;36.40
77100;SHT31;66602;48.922;2.414;2023-08-21T08:18:54;32.37;37.66
77100;SHT31;66602;48.922;2.414;2023-08-21T08:21:19;32.71;36.97
77100;SHT31;66602;48.922;2.414;2023-08-21T08:23:45;33.04;35.82
77100;SHT31;66602;48.922;2.414;2023-08-21T08:26:10;32.95;37.42
77100;SHT31;66602;48.922;2.414;2023-08-21T08:28:36;33.28;37.12
77100;SHT31;66602;48.922;2.414;2023-08-21T08:31:01;33.83;35.76
77100;SHT31;66602;48.922;2.414;2023-08-21T08:33:36;33.87;35.80
77100;SHT31;66602;48.922;2.414;2023-08-21T08:36:02;34.01;34.56
77100;SHT31;66602;48.922;2.414;2023-08-21T08:38:27;34.01;35.39
77100;SHT31;66602;48.922;2.414;2023-08-21T08:40:54;33.94;34.65
77100;SHT31;66602;48.922;2.414;2023-08-21T08:43:21;34.04;34.13
77100;SHT31;66602;48.922;2.414;2023-08-21T08:45:49;34.08;35.51
77100;SHT31;66602;48.922;2.414;2023-08-21T08:48:15;34.23;35.67
77100;SHT31;66602;48.922;2.414;2023-08-21T08:50:42;34.58;34.66
77100;SHT31;66602;48.922;2.414;2023-08-21T08:53:09;34.92;33.62
77100;SHT31;66602;48.922;2.414;2023-08-21T08:55:34;35.46;34.23
77100;SHT31;66602;48.922;2.414;2023-08-21T08:58:00;35.98;31.88
77100;SHT31;66602;48.922;2.414;2023-08-21T09:00:25;35.26;32.99
77100;SHT31;66602;48.922;2.414;2023-08-21T09:02:51;35.27;34.06
77100;SHT31;66602;48.922;2.414;2023-08-21T09:05:17;35.06;33.62
77100;SHT31;66602;48.922;2.414;2023-08-21T09:07:42;35.06;35.36
77100;SHT31;66602;48.922;2.414;2023-08-21T09:10:14;35.47;33.13
77100;SHT31;66602;48.922;2.414;2023-08-21T09:12:45;35.55;32.88
77100;SHT31;66602;48.922;2.414;2023-08-21T09:15:10;35.44;34.12
77100;SHT31;66602;48.922;2.414;2023-08-21T09:17:36;35.82;32.24
77100;SHT31;66602;48.922;2.414;2023-08-21T09:20:06;35.74;33.00
77100;SHT31;66602;48.922;2.414;2023-08-21T09:22:32;35.95;33.57
77100;SHT31;66602;48.922;2.414;2023-08-21T09:25:03;36.00;32.00
77100;SHT31;66602;48.922;2.414;2023-08-21T09:27:38;36.49;32.03
77100;SHT31;66602;48.922;2.414;2023-08-21T09:30:10;35.74;32.96
77100;SHT31;66602;48.922;2.414;2023-08-21T09:32:57;36.19;35.22
77100;SHT31;66602;48.922;2.414;2023-08-21T09:35:25;36.62;30.87
77100;SHT31;66602;48.922;2.414;2023-08-21T09:37:51;36.36;32.59
77100;SHT31;66602;48.922;2.414;2023-08-21T09:40:21;37.00;31.72
77100;SHT31;66602;48.922;2.414;2023-08-21T09:42:55;37.10;31.02
77100;SHT31;66602;48.922;2.414;2023-08-21T09:45:25;36.66;31.49
77100;SHT31;66602;48.922;2.414;2023-08-21T09:47:53;36.60;33.43
77100;SHT31;66602;48.922;2.414;2023-08-21T09:50:19;37.42;30.65
77100;SHT31;66602;48.922;2.414;2023-08-21T09:52:45;36.96;30.31
77100;SHT31;66602;48.922;2.414;2023-08-21T09:55:13;35.88;32.30
77100;SHT31;66602;48.922;2.414;2023-08-21T09:57:39;35.80;32.24
77100;SHT31;66602;48.922;2.414;2023-08-21T10:00:07;36.39;31.50
77100;SHT31;66602;48.922;2.414;2023-08-21T10:02:53;36.55;31.13
77100;SHT31;66602;48.922;2.414;2023-08-21T10:05:19;36.32;32.14
77100;SHT31;66602;48.922;2.414;2023-08-21T10:07:49;36.12;32.52
77100;SHT31;66602;48.922;2.414;2023-08-21T10:10:16;36.14;32.73
77100;SHT31;66602;48.922;2.414;2023-08-21T10:12:41;36.53;31.42
77100;SHT31;66602;48.922;2.414;2023-08-21T10:15:07;36.56;31.61
77100;SHT31;66602;48.922;2.414;2023-08-21T10:17:37;36.90;30.86
77100;SHT31;66602;48.922;2.414;2023-08-21T10:20:04;37.78;30.80
77100;SHT31;66602;48.922;2.414;2023-08-21T10:25:18;37.96;30.47
77100;SHT31;66602;48.922;2.414;2023-08-21T10:27:53;38.64;30.01
77100;SHT31;66602;48.922;2.414;2023-08-21T10:30:26;38.09;30.71
77100;SHT31;66602;48.922;2.414;2023-08-21T10:32:54;38.01;29.80
77100;SHT31;66602;48.922;2.414;2023-08-21T10:35:25;38.67;30.38
77100;SHT31;66602;48.922;2.414;2023-08-21T10:38:10;39.13;28.66
77100;SHT31;66602;48.922;2.414;2023-08-21T10:40:36;38.47;29.36
77100;SHT31;66602;48.922;2.414;2023-08-21T10:43:03;38.45;29.25
77100;SHT31;66602;48.922;2.414;2023-08-21T10:45:29;38.73;28.90
77100;SHT31;66602;48.922;2.414;2023-08-21T10:47:59;39.10;29.15
77100;SHT31;66602;48.922;2.414;2023-08-21T10:50:25;38.74;29.68
77100;SHT31;66602;48.922;2.414;2023-08-21T10:52:52;38.67;29.44
77100;SHT31;66602;48.922;2.414;2023-08-21T10:55:18;38.27;29.52
77100;SHT31;66602;48.922;2.414;2023-08-21T10:57:47;38.46;27.98
77100;SHT31;66602;48.922;2.414;2023-08-21T11:00:17;38.30;28.82
77100;SHT31;66602;48.922;2.414;2023-08-21T11:02:44;38.22;29.44
77100;SHT31;66602;48.922;2.414;2023-08-21T11:05:12;38.05;29.60
77100;SHT31;66602;48.922;2.414;2023-08-21T11:07:48;37.75;29.61
77100;SHT31;66602;48.922;2.414;2023-08-21T11:10:18;37.39;30.18
77100;SHT31;66602;48.922;2.414;2023-08-21T11:12:54;37.16;30.63
77100;SHT31;66602;48.922;2.414;2023-08-21T11:15:27;37.69;30.05
77100;SHT31;66602;48.922;2.414;2023-08-21T11:17:53;37.35;29.70
77100;SHT31;66602;48.922;2.414;2023-08-21T11:20:19;37.24;31.39
77100;SHT31;66602;48.922;2.414;2023-08-21T11:22:45;37.60;30.79
77100;SHT31;66602;48.922;2.414;2023-08-21T11:25:10;37.64;30.30
77100;SHT31;66602;48.922;2.414;2023-08-21T11:27:36;37.93;30.52
77100;SHT31;66602;48.922;2.414;2023-08-21T11:30:01;38.11;29.32
77100;SHT31;66602;48.922;2.414;2023-08-21T11:32:27;37.48;30.16
77100;SHT31;66602;48.922;2.414;2023-08-21T11:34:54;37.35;30.99
77100;SHT31;66602;48.922;2.414;2023-08-21T11:37:22;37.85;31.41
77100;SHT31;66602;48.922;2.414;2023-08-21T11:39:49;37.96;31.69
77100;SHT31;66602;48.922;2.414;2023-08-21T11:42:15;38.27;32.09
77100;SHT31;66602;48.922;2.414;2023-08-21T11:44:47;37.89;28.84
77100;SHT31;66602;48.922;2.414;2023-08-21T11:47:14;37.82;29.47
77100;SHT31;66602;48.922;2.414;2023-08-21T11:49:41;37.98;30.93
77100;SHT31;66602;48.922;2.414;2023-08-21T11:52:08;38.08;28.50
77100;SHT31;66602;48.922;2.414;2023-08-21T11:54:34;37.89;29.06
77100;SHT31;66602;48.922;2.414;2023-08-21T11:57:07;37.84;31.44
77100;SHT31;66602;48.922;2.414;2023-08-21T11:59:33;37.96;29.34
77100;SHT31;66602;48.922;2.414;2023-08-21T12:01:58;38.20;28.73
77100;SHT31;66602;48.922;2.414;2023-08-21T12:04:24;38.46;28.93
77100;SHT31;66602;48.922;2.414;2023-08-21T12:06:50;39.04;27.14
77100;SHT31;66602;48.922;2.414;2023-08-21T12:09:15;39.45;27.23
77100;SHT31;66602;48.922;2.414;2023-08-21T12:11:41;38.97;29.10
77100;SHT31;66602;48.922;2.414;2023-08-21T12:14:06;38.08;30.44
77100;SHT31;66602;48.922;2.414;2023-08-21T12:16:32;37.96;29.94
77100;SHT31;66602;48.922;2.414;2023-08-21T12:18:58;38.16;27.81
77100;SHT31;66602;48.922;2.414;2023-08-21T12:21:24;38.23;28.99
77100;SHT31;66602;48.922;2.414;2023-08-21T12:23:50;38.05;30.84
77100;SHT31;66602;48.922;2.414;2023-08-21T12:26:15;38.98;28.17
77100;SHT31;66602;48.922;2.414;2023-08-21T12:28:46;39.68;27.20
77100;SHT31;66602;48.922;2.414;2023-08-21T12:31:12;39.66;25.32
77100;SHT31;66602;48.922;2.414;2023-08-21T12:33:38;39.18;27.80
77100;SHT31;66602;48.922;2.414;2023-08-21T12:36:04;38.62;30.09
77100;SHT31;66602;48.922;2.414;2023-08-21T12:38:29;38.40;28.55
77100;SHT31;66602;48.922;2.414;2023-08-21T12:40:55;38.54;29.21
77100;SHT31;66602;48.922;2.414;2023-08-21T12:43:20;38.46;27.40
77100;SHT31;66602;48.922;2.414;2023-08-21T12:45:47;39.17;27.43
77100;SHT31;66602;48.922;2.414;2023-08-21T12:48:12;39.53;28.34
77100;SHT31;66602;48.922;2.414;2023-08-21T12:50:38;38.91;28.13
77100;SHT31;66602;48.922;2.414;2023-08-21T12:53:03;38.40;27.56
77100;SHT31;66602;48.922;2.414;2023-08-21T12:55:29;38.71;28.88
77100;SHT31;66602;48.922;2.414;2023-08-21T12:57:56;38.77;27.19
77100;SHT31;66602;48.922;2.414;2023-08-21T13:00:22;38.29;27.47
77100;SHT31;66602;48.922;2.414;2023-08-21T13:02:47;37.82;28.28
77100;SHT31;66602;48.922;2.414;2023-08-21T13:05:14;38.19;28.89
77100;SHT31;66602;48.922;2.414;2023-08-21T13:07:41;38.43;28.60
77100;SHT31;66602;48.922;2.414;2023-08-21T13:10:07;38.45;28.77
77100;SHT31;66602;48.922;2.414;2023-08-21T13:12:32;38.39;28.51
77100;SHT31;66602;48.922;2.414;2023-08-21T13:14:58;37.03;30.12
77100;SHT31;66602;48.922;2.414;2023-08-21T13:17:24;36.73;30.31
77100;SHT31;66602;48.922;2.414;2023-08-21T13:19:49;36.93;29.53
77100;SHT31;66602;48.922;2.414;2023-08-21T13:22:16;37.13;30.75
77100;SHT31;66602;48.922;2.414;2023-08-21T13:24:42;37.51;31.11
77100;SHT31;66602;48.922;2.414;2023-08-21T13:27:07;37.82;28.74
77100;SHT31;66602;48.922;2.414;2023-08-21T13:29:33;38.47;28.93
77100;SHT31;66602;48.922;2.414;2023-08-21T13:31:58;38.68;27.63
77100;SHT31;66602;48.922;2.414;2023-08-21T13:34:24;38.83;29.01
77100;SHT31;66602;48.922;2.414;2023-08-21T13:36:49;38.49;27.37
77100;SHT31;66602;48.922;2.414;2023-08-21T13:39:16;37.98;28.62
77100;SHT31;66602;48.922;2.414;2023-08-21T13:41:42;37.81;28.42
77100;SHT31;66602;48.922;2.414;2023-08-21T13:44:07;37.35;31.80
77100;SHT31;66602;48.922;2.414;2023-08-21T13:46:36;36.90;30.38
77100;SHT31;66602;48.922;2.414;2023-08-21T13:49:01;37.16;29.79
77100;SHT31;66602;48.922;2.414;2023-08-21T13:51:27;37.04;29.62
77100;SHT31;66602;48.922;2.414;2023-08-21T13:53:53;36.55;31.51
77100;SHT31;66602;48.922;2.414;2023-08-21T13:56:18;36.56;31.37
77100;SHT31;66602;48.922;2.414;2023-08-21T13:58:44;36.69;29.53
77100;SHT31;66602;48.922;2.414;2023-08-21T14:01:09;36.48;29.67
77100;SHT31;66602;48.922;2.414;2023-08-21T14:03:34;37.14;28.28
77100;SHT31;66602;48.922;2.414;2023-08-21T14:06:00;37.67;29.54
77100;SHT31;66602;48.922;2.414;2023-08-21T14:08:26;38.02;28.79
77100;SHT31;66602;48.922;2.414;2023-08-21T14:10:51;38.26;30.85
77100;SHT31;66602;48.922;2.414;2023-08-21T14:13:17;37.85;30.09
77100;SHT31;66602;48.922;2.414;2023-08-21T14:15:42;37.16;29.23
77100;SHT31;66602;48.922;2.414;2023-08-21T14:18:08;37.00;30.31
77100;SHT31;66602;48.922;2.414;2023-08-21T14:20:33;36.60;30.71
77100;SHT31;66602;48.922;2.414;2023-08-21T14:22:59;36.36;32.41
77100;SHT31;66602;48.922;2.414;2023-08-21T14:25:25;36.43;31.22
77100;SHT31;66602;48.922;2.414;2023-08-21T14:27:50;36.49;32.20
77100;SHT31;66602;48.922;2.414;2023-08-21T14:30:16;36.69;30.78
77100;SHT31;66602;48.922;2.414;2023-08-21T14:32:41;36.28;30.07
77100;SHT31;66602;48.922;2.414;2023-08-21T14:35:08;35.95;30.63
77100;SHT31;66602;48.922;2.414;2023-08-21T14:37:36;36.42;31.14
77100;SHT31;66602;48.922;2.414;2023-08-21T14:40:02;36.59;30.30
77100;SHT31;66602;48.922;2.414;2023-08-21T14:42:33;36.11;31.81
77100;SHT31;66602;48.922;2.414;2023-08-21T14:44:58;35.88;31.87
77100;SHT31;66602;48.922;2.414;2023-08-21T14:47:24;35.82;32.62
77100;SHT31;66602;48.922;2.414;2023-08-21T14:49:49;36.11;33.09
77100;SHT31;66602;48.922;2.414;2023-08-21T14:52:16;36.04;31.80
77100;SHT31;66602;48.922;2.414;2023-08-21T14:54:42;36.31;31.89
77100;SHT31;66602;48.922;2.414;2023-08-21T14:57:07;36.55;32.04
77100;SHT31;66602;48.922;2.414;2023-08-21T14:59:33;36.83;30.88
77100;SHT31;66602;48.922;2.414;2023-08-21T15:01:59;36.75;32.08
77100;SHT31;66602;48.922;2.414;2023-08-21T15:04:24;36.91;31.33
77100;SHT31;66602;48.922;2.414;2023-08-21T15:06:50;37.01;30.04
77100;SHT31;66602;48.922;2.414;2023-08-21T15:09:15;36.24;31.65
77100;SHT31;66602;48.922;2.414;2023-08-21T15:11:41;36.14;32.24
77100;SHT31;66602;48.922;2.414;2023-08-21T15:14:10;36.33;30.58
77100;SHT31;66602;48.922;2.414;2023-08-21T15:16:39;36.45;31.41
77100;SHT31;66602;48.922;2.414;2023-08-21T15:19:05;36.36;31.15
77100;SHT31;66602;48.922;2.414;2023-08-21T15:21:30;36.72;31.78
77100;SHT31;66602;48.922;2.414;2023-08-21T15:23:55;36.56;30.78
77100;SHT31;66602;48.922;2.414;2023-08-21T15:26:21;35.70;32.63
77100;SHT31;66602;48.922;2.414;2023-08-21T15:28:47;35.13;33.57
77100;SHT31;66602;48.922;2.414;2023-08-21T15:31:13;34.89;32.56
77100;SHT31;66602;48.922;2.414;2023-08-21T15:33:38;34.86;32.07